sensor_id;sensor_type;location;lat;lon;timestamp;P1;durP1;ratioP1;P2;durP2;ratioP2
485;SDS011;229;48.734;9.340;2023-07-28T00:01:36;6.40;;;4.10;;
485;SDS011;229;48.734;9.340;2023-07-28T00:04:04;10.30;;;3.53;;
485;SDS011;229;48.734;9.340;2023-07-28T00:06:32;7.88;;;3.42;;
485;SDS011;229;48.734;9.340;2023-07-28T00:09:00;5.43;;;3.30;;
485;SDS011;229;48.734;9.340;2023-07-28T00:11:28;3.50;;;2.90;;
485;SDS011;229;48.734;9.340;2023-07-28T00:13:55;5.57;;;3.67;;
485;SDS011;229;48.734;9.340;2023-07-28T00:16:22;7.95;;;3.92;;
485;SDS011;229;48.734;9.340;2023-07-28T00:18:49;8.60;;;4.15;;
485;SDS011;229;48.734;9.340;2023-07-28T00:21:16;4.40;;;3.40;;
485;SDS011;229;48.734;9.340;2023-07-28T00:23:43;6.22;;;3.75;;
485;SDS011;229;48.734;9.340;2023-07-28T00:26:12;5.53;;;3.95;;
485;SDS011;229;48.734;9.340;2023-07-28T00:28:39;6.65;;;4.10;;
485;SDS011;229;48.734;9.340;2023-07-28T00:31:06;6.00;;;3.70;;
485;SDS011;229;48.734;9.340;2023-07-28T00:33:33;6.15;;;3.70;;
485;SDS011;229;48.734;9.340;2023-07-28T00:36:00;6.10;;;3.75;;
485;SDS011;229;48.734;9.340;2023-07-28T00:38:28;5.93;;;3.67;;
485;SDS011;229;48.734;9.340;2023-07-28T00:40:55;6.80;;;3.70;;
485;SDS011;229;48.734;9.340;2023-07-28T00:43:23;6.13;;;3.95;;
485;SDS011;229;48.734;9.340;2023-07-28T00:45:51;6.85;;;3.55;;
485;SDS011;229;48.734;9.340;2023-07-28T00:48:18;7.63;;;4.00;;
485;SDS011;229;48.734;9.340;2023-07-28T00:50:48;12.30;;;3.53;;
485;SDS011;229;48.734;9.340;2023-07-28T00:53:16;5.00;;;3.17;;
485;SDS011;229;48.734;9.340;2023-07-28T00:55:43;4.28;;;3.05;;
485;SDS011;229;48.734;9.340;2023-07-28T00:58:10;7.05;;;3.50;;
485;SDS011;229;48.734;9.340;2023-07-28T01:00:39;3.97;;;3.30;;
485;SDS011;229;48.734;9.340;2023-07-28T01:03:06;6.55;;;3.58;;
485;SDS011;229;48.734;9.340;2023-07-28T01:05:34;6.22;;;4.00;;
485;SDS011;229;48.734;9.340;2023-07-28T01:08:06;4.80;;;3.40;;
485;SDS011;229;48.734;9.340;2023-07-28T01:10:37;8.00;;;4.07;;
485;SDS011;229;48.734;9.340;2023-07-28T01:13:05;7.15;;;3.50;;
485;SDS011;229;48.734;9.340;2023-07-28T01:15:32;11.50;;;3.97;;
485;SDS011;229;48.734;9.340;2023-07-28T01:18:01;8.23;;;4.22;;
485;SDS011;229;48.734;9.340;2023-07-28T01:20:29;6.55;;;4.05;;
485;SDS011;229;48.734;9.340;2023-07-28T01:23:03;9.18;;;4.45;;
485;SDS011;229;48.734;9.340;2023-07-28T01:25:35;6.10;;;3.90;;
485;SDS011;229;48.734;9.340;2023-07-28T01:28:05;5.53;;;3.35;;
485;SDS011;229;48.734;9.340;2023-07-28T01:30:32;5.13;;;3.35;;
485;SDS011;229;48.734;9.340;2023-07-28T01:33:00;9.20;;;3.78;;
485;SDS011;229;48.734;9.340;2023-07-28T01:35:27;7.20;;;3.50;;
485;SDS011;229;48.734;9.340;2023-07-28T01:37:54;6.20;;;3.80;;
485;SDS011;229;48.734;9.340;2023-07-28T01:40:22;5.78;;;3.83;;
485;SDS011;229;48.734;9.340;2023-07-28T01:42:49;6.55;;;3.38;;
485;SDS011;229;48.734;9.340;2023-07-28T01:45:17;8.07;;;3.88;;
485;SDS011;229;48.734;9.340;2023-07-28T01:47:44;4.85;;;3.30;;
485;SDS011;229;48.734;9.340;2023-07-28T01:50:12;5.78;;;3.70;;
485;SDS011;229;48.734;9.340;2023-07-28T01:52:39;7.90;;;3.60;;
485;SDS011;229;48.734;9.340;2023-07-28T01:55:06;6.43;;;3.30;;
485;SDS011;229;48.734;9.340;2023-07-28T01:57:34;7.38;;;3.60;;
485;SDS011;229;48.734;9.340;2023-07-28T02:00:01;6.65;;;4.00;;
485;SDS011;229;48.734;9.340;2023-07-28T02:02:30;8.52;;;3.50;;
485;SDS011;229;48.734;9.340;2023-07-28T02:04:57;6.32;;;3.97;;
485;SDS011;229;48.734;9.340;2023-07-28T02:07:24;7.10;;;3.67;;
485;SDS011;229;48.734;9.340;2023-07-28T02:09:51;5.65;;;3.20;;
485;SDS011;229;48.734;9.340;2023-07-28T02:12:18;11.20;;;4.25;;
485;SDS011;229;48.734;9.340;2023-07-28T02:14:46;8.50;;;3.95;;
485;SDS011;229;48.734;9.340;2023-07-28T02:17:13;5.50;;;3.80;;
485;SDS011;229;48.734;9.340;2023-07-28T02:19:41;5.22;;;3.72;;
485;SDS011;229;48.734;9.340;2023-07-28T02:22:09;8.07;;;3.90;;
485;SDS011;229;48.734;9.340;2023-07-28T02:24:37;8.23;;;4.32;;
485;SDS011;229;48.734;9.340;2023-07-28T02:27:04;11.55;;;4.45;;
485;SDS011;229;48.734;9.340;2023-07-28T02:29:31;6.45;;;3.85;;
485;SDS011;229;48.734;9.340;2023-07-28T02:31:58;13.40;;;4.63;;
485;SDS011;229;48.734;9.340;2023-07-28T02:34:26;8.57;;;4.57;;
485;SDS011;229;48.734;9.340;2023-07-28T02:36:54;5.63;;;3.83;;
485;SDS011;229;48.734;9.340;2023-07-28T02:39:21;10.02;;;3.95;;
485;SDS011;229;48.734;9.340;2023-07-28T02:41:49;5.90;;;4.03;;
485;SDS011;229;48.734;9.340;2023-07-28T02:44:17;8.70;;;4.80;;
485;SDS011;229;48.734;9.340;2023-07-28T02:46:44;8.60;;;4.00;;
485;SDS011;229;48.734;9.340;2023-07-28T02:49:11;6.43;;;4.55;;
485;SDS011;229;48.734;9.340;2023-07-28T02:51:38;7.00;;;3.95;;
485;SDS011;229;48.734;9.340;2023-07-28T02:54:08;7.00;;;3.85;;
485;SDS011;229;48.734;9.340;2023-07-28T02:56:35;8.95;;;4.57;;
485;SDS011;229;48.734;9.340;2023-07-28T02:59:03;6.20;;;4.00;;
485;SDS011;229;48.734;9.340;2023-07-28T03:01:30;8.10;;;3.88;;
485;SDS011;229;48.734;9.340;2023-07-28T03:03:58;6.70;;;3.92;;
485;SDS011;229;48.734;9.340;2023-07-28T03:06:25;4.80;;;3.40;;
485;SDS011;229;48.734;9.340;2023-07-28T03:08:53;6.70;;;4.22;;
485;SDS011;229;48.734;9.340;2023-07-28T03:11:21;6.00;;;3.70;;
485;SDS011;229;48.734;9.340;2023-07-28T03:13:48;7.70;;;3.90;;
485;SDS011;229;48.734;9.340;2023-07-28T03:16:16;5.40;;;3.47;;
485;SDS011;229;48.734;9.340;2023-07-28T03:18:43;10.77;;;4.10;;
485;SDS011;229;48.734;9.340;2023-07-28T03:21:10;7.68;;;4.63;;
485;SDS011;229;48.734;9.340;2023-07-28T03:23:37;5.85;;;3.95;;
485;SDS011;229;48.734;9.340;2023-07-28T03:26:04;5.53;;;3.45;;
485;SDS011;229;48.734;9.340;2023-07-28T03:28:33;6.80;;;3.85;;
485;SDS011;229;48.734;9.340;2023-07-28T03:31:00;4.00;;;3.50;;
485;SDS011;229;48.734;9.340;2023-07-28T03:33:27;8.82;;;3.53;;
485;SDS011;229;48.734;9.340;2023-07-28T03:35:55;7.60;;;4.68;;
485;SDS011;229;48.734;9.340;2023-07-28T03:38:22;4.68;;;3.80;;
485;SDS011;229;48.734;9.340;2023-07-28T03:40:49;7.80;;;4.80;;
485;SDS011;229;48.734;9.340;2023-07-28T03:43:16;6.80;;;4.10;;
485;SDS011;229;48.734;9.340;2023-07-28T03:45:45;7.03;;;4.43;;
485;SDS011;229;48.734;9.340;2023-07-28T03:48:12;8.10;;;4.90;;
485;SDS011;229;48.734;9.340;2023-07-28T03:50:39;5.72;;;3.60;;
485;SDS011;229;48.734;9.340;2023-07-28T03:53:07;6.55;;;4.15;;
485;SDS011;229;48.734;9.340;2023-07-28T03:55:34;10.98;;;4.53;;
485;SDS011;229;48.734;9.340;2023-07-28T03:58:01;4.50;;;3.45;;
485;SDS011;229;48.734;9.340;2023-07-28T04:00:31;5.18;;;3.97;;
485;SDS011;229;48.734;9.340;2023-07-28T04:02:59;7.93;;;4.57;;
485;SDS011;229;48.734;9.340;2023-07-28T04:05:26;10.15;;;4.60;;
485;SDS011;229;48.734;9.340;2023-07-28T04:07:54;9.32;;;4.35;;
485;SDS011;229;48.734;9.340;2023-07-28T04:10:21;5.32;;;4.07;;
485;SDS011;229;48.734;9.340;2023-07-28T04:12:48;7.38;;;4.38;;
485;SDS011;229;48.734;9.340;2023-07-28T04:15:15;5.35;;;3.80;;
485;SDS011;229;48.734;9.340;2023-07-28T04:17:43;6.35;;;4.00;;
485;SDS011;229;48.734;9.340;2023-07-28T04:20:11;7.47;;;4.05;;
485;SDS011;229;48.734;9.340;2023-07-28T04:22:39;6.40;;;4.00;;
485;SDS011;229;48.734;9.340;2023-07-28T04:25:06;7.40;;;4.40;;
485;SDS011;229;48.734;9.340;2023-07-28T04:27:33;6.57;;;4.63;;
485;SDS011;229;48.734;9.340;2023-07-28T04:30:01;8.90;;;4.72;;
485;SDS011;229;48.734;9.340;2023-07-28T04:32:28;6.85;;;4.70;;
485;SDS011;229;48.734;9.340;2023-07-28T04:34:55;6.55;;;4.38;;
485;SDS011;229;48.734;9.340;2023-07-28T04:37:24;8.70;;;4.85;;
485;SDS011;229;48.734;9.340;2023-07-28T04:39:51;9.25;;;4.80;;
485;SDS011;229;48.734;9.340;2023-07-28T04:42:18;9.05;;;4.80;;
485;SDS011;229;48.734;9.340;2023-07-28T04:44:45;9.35;;;4.65;;
485;SDS011;229;48.734;9.340;2023-07-28T04:47:13;7.70;;;4.75;;
485;SDS011;229;48.734;9.340;2023-07-28T04:49:40;5.95;;;4.38;;
485;SDS011;229;48.734;9.340;2023-07-28T04:52:07;5.80;;;4.28;;
485;SDS011;229;48.734;9.340;2023-07-28T04:54:36;12.40;;;5.10;;
485;SDS011;229;48.734;9.340;2023-07-28T04:57:03;9.15;;;4.95;;
485;SDS011;229;48.734;9.340;2023-07-28T04:59:31;8.57;;;4.55;;
485;SDS011;229;48.734;9.340;2023-07-28T05:01:58;10.82;;;5.53;;
485;SDS011;229;48.734;9.340;2023-07-28T05:04:25;7.07;;;5.35;;
485;SDS011;229;48.734;9.340;2023-07-28T05:06:52;9.48;;;4.95;;
485;SDS011;229;48.734;9.340;2023-07-28T05:09:19;12.18;;;4.97;;
485;SDS011;229;48.734;9.340;2023-07-28T05:11:48;9.93;;;5.75;;
485;SDS011;229;48.734;9.340;2023-07-28T05:14:15;6.00;;;4.72;;
485;SDS011;229;48.734;9.340;2023-07-28T05:16:42;5.88;;;4.65;;
485;SDS011;229;48.734;9.340;2023-07-28T05:19:09;6.75;;;4.80;;
485;SDS011;229;48.734;9.340;2023-07-28T05:21:37;6.55;;;5.15;;
485;SDS011;229;48.734;9.340;2023-07-28T05:24:04;9.57;;;5.20;;
485;SDS011;229;48.734;9.340;2023-07-28T05:26:31;10.57;;;5.53;;
485;SDS011;229;48.734;9.340;2023-07-28T05:29:00;8.98;;;5.10;;
485;SDS011;229;48.734;9.340;2023-07-28T05:31:27;10.40;;;5.78;;
485;SDS011;229;48.734;9.340;2023-07-28T05:33:54;11.23;;;6.00;;
485;SDS011;229;48.734;9.340;2023-07-28T05:36:21;8.73;;;5.40;;
485;SDS011;229;48.734;9.340;2023-07-28T05:38:48;8.98;;;5.35;;
485;SDS011;229;48.734;9.340;2023-07-28T05:41:16;8.75;;;5.50;;
485;SDS011;229;48.734;9.340;2023-07-28T05:43:43;9.88;;;5.15;;
485;SDS011;229;48.734;9.340;2023-07-28T05:46:11;9.40;;;4.95;;
485;SDS011;229;48.734;9.340;2023-07-28T05:48:39;7.50;;;5.35;;
485;SDS011;229;48.734;9.340;2023-07-28T05:51:06;7.40;;;4.40;;
485;SDS011;229;48.734;9.340;2023-07-28T05:53:33;6.88;;;4.72;;
485;SDS011;229;48.734;9.340;2023-07-28T05:56:00;10.65;;;5.82;;
485;SDS011;229;48.734;9.340;2023-07-28T05:58:27;8.95;;;5.80;;
485;SDS011;229;48.734;9.340;2023-07-28T06:00:54;8.68;;;5.82;;
485;SDS011;229;48.734;9.340;2023-07-28T06:03:24;12.18;;;6.35;;
485;SDS011;229;48.734;9.340;2023-07-28T06:05:54;8.82;;;6.03;;
485;SDS011;229;48.734;9.340;2023-07-28T06:08:21;10.50;;;5.70;;
485;SDS011;229;48.734;9.340;2023-07-28T06:10:48;8.55;;;6.28;;
485;SDS011;229;48.734;9.340;2023-07-28T06:13:15;13.93;;;7.03;;
485;SDS011;229;48.734;9.340;2023-07-28T06:15:43;12.73;;;7.07;;
485;SDS011;229;48.734;9.340;2023-07-28T06:18:10;12.70;;;6.40;;
485;SDS011;229;48.734;9.340;2023-07-28T06:20:41;11.80;;;5.95;;
485;SDS011;229;48.734;9.340;2023-07-28T06:23:08;14.32;;;6.93;;
485;SDS011;229;48.734;9.340;2023-07-28T06:25:35;10.27;;;6.43;;
485;SDS011;229;48.734;9.340;2023-07-28T06:28:03;9.52;;;6.40;;
485;SDS011;229;48.734;9.340;2023-07-28T06:30:31;12.15;;;6.80;;
485;SDS011;229;48.734;9.340;2023-07-28T06:32:58;8.50;;;5.78;;
485;SDS011;229;48.734;9.340;2023-07-28T06:35:25;15.02;;;6.53;;
485;SDS011;229;48.734;9.340;2023-07-28T06:37:54;11.18;;;6.45;;
485;SDS011;229;48.734;9.340;2023-07-28T06:40:21;10.20;;;6.40;;
485;SDS011;229;48.734;9.340;2023-07-28T06:42:48;15.65;;;6.65;;
485;SDS011;229;48.734;9.340;2023-07-28T06:45:16;9.50;;;5.82;;
485;SDS011;229;48.734;9.340;2023-07-28T06:47:43;9.13;;;6.32;;
485;SDS011;229;48.734;9.340;2023-07-28T06:50:11;12.55;;;7.00;;
485;SDS011;229;48.734;9.340;2023-07-28T06:52:38;12.63;;;6.38;;
485;SDS011;229;48.734;9.340;2023-07-28T06:55:07;8.85;;;6.25;;
485;SDS011;229;48.734;9.340;2023-07-28T06:57:35;15.13;;;6.80;;
485;SDS011;229;48.734;9.340;2023-07-28T07:00:02;9.85;;;6.72;;
485;SDS011;229;48.734;9.340;2023-07-28T07:02:30;14.00;;;6.25;;
485;SDS011;229;48.734;9.340;2023-07-28T07:04:57;19.52;;;7.10;;
485;SDS011;229;48.734;9.340;2023-07-28T07:07:24;10.30;;;7.53;;
485;SDS011;229;48.734;9.340;2023-07-28T07:09:52;10.05;;;7.50;;
485;SDS011;229;48.734;9.340;2023-07-28T07:12:20;13.10;;;7.57;;
485;SDS011;229;48.734;9.340;2023-07-28T07:14:47;10.65;;;6.72;;
485;SDS011;229;48.734;9.340;2023-07-28T07:17:14;11.30;;;6.85;;
485;SDS011;229;48.734;9.340;2023-07-28T07:19:42;12.15;;;6.80;;
485;SDS011;229;48.734;9.340;2023-07-28T07:22:09;13.88;;;6.93;;
485;SDS011;229;48.734;9.340;2023-07-28T07:24:36;13.50;;;7.38;;
485;SDS011;229;48.734;9.340;2023-07-28T07:27:04;15.30;;;7.47;;
485;SDS011;229;48.734;9.340;2023-07-28T07:29:33;10.45;;;7.20;;
485;SDS011;229;48.734;9.340;2023-07-28T07:32:00;16.33;;;6.70;;
485;SDS011;229;48.734;9.340;2023-07-28T07:34:27;15.20;;;6.78;;
485;SDS011;229;48.734;9.340;2023-07-28T07:36:54;18.25;;;6.97;;
485;SDS011;229;48.734;9.340;2023-07-28T07:39:22;12.00;;;6.43;;
485;SDS011;229;48.734;9.340;2023-07-28T07:41:49;12.82;;;7.10;;
485;SDS011;229;48.734;9.340;2023-07-28T07:44:16;11.05;;;7.00;;
485;SDS011;229;48.734;9.340;2023-07-28T07:46:45;10.20;;;6.57;;
485;SDS011;229;48.734;9.340;2023-07-28T07:49:12;14.85;;;7.28;;
485;SDS011;229;48.734;9.340;2023-07-28T07:51:39;9.87;;;6.47;;
485;SDS011;229;48.734;9.340;2023-07-28T07:54:06;13.52;;;7.18;;
485;SDS011;229;48.734;9.340;2023-07-28T07:56:34;9.77;;;6.72;;
485;SDS011;229;48.734;9.340;2023-07-28T07:59:01;12.33;;;6.60;;
485;SDS011;229;48.734;9.340;2023-07-28T08:01:28;9.20;;;6.43;;
485;SDS011;229;48.734;9.340;2023-07-28T08:03:57;13.70;;;6.38;;
485;SDS011;229;48.734;9.340;2023-07-28T08:06:24;7.43;;;5.53;;
485;SDS011;229;48.734;9.340;2023-07-28T08:08:51;6.77;;;5.23;;
485;SDS011;229;48.734;9.340;2023-07-28T08:11:18;8.40;;;5.33;;
485;SDS011;229;48.734;9.340;2023-07-28T08:13:46;7.93;;;4.90;;
485;SDS011;229;48.734;9.340;2023-07-28T08:16:13;9.52;;;5.90;;
485;SDS011;229;48.734;9.340;2023-07-28T08:18:40;9.60;;;5.87;;
485;SDS011;229;48.734;9.340;2023-07-28T08:21:09;8.07;;;6.13;;
485;SDS011;229;48.734;9.340;2023-07-28T08:23:36;9.20;;;5.60;;
485;SDS011;229;48.734;9.340;2023-07-28T08:26:03;13.87;;;6.03;;
485;SDS011;229;48.734;9.340;2023-07-28T08:28:30;11.57;;;6.30;;
485;SDS011;229;48.734;9.340;2023-07-28T08:30:57;12.13;;;5.97;;
485;SDS011;229;48.734;9.340;2023-07-28T08:33:25;10.77;;;5.77;;
485;SDS011;229;48.734;9.340;2023-07-28T08:35:52;12.30;;;6.23;;
485;SDS011;229;48.734;9.340;2023-07-28T08:38:20;10.87;;;6.40;;
485;SDS011;229;48.734;9.340;2023-07-28T08:40:48;8.00;;;5.90;;
485;SDS011;229;48.734;9.340;2023-07-28T08:43:15;8.53;;;5.50;;
485;SDS011;229;48.734;9.340;2023-07-28T08:45:42;10.63;;;6.50;;
485;SDS011;229;48.734;9.340;2023-07-28T08:48:09;12.63;;;5.40;;
485;SDS011;229;48.734;9.340;2023-07-28T08:50:36;15.23;;;5.70;;
485;SDS011;229;48.734;9.340;2023-07-28T08:53:03;10.73;;;6.10;;
485;SDS011;229;48.734;9.340;2023-07-28T08:55:32;9.57;;;5.30;;
485;SDS011;229;48.734;9.340;2023-07-28T08:58:13;11.60;;;5.93;;
485;SDS011;229;48.734;9.340;2023-07-28T09:00:40;15.00;;;5.63;;
485;SDS011;229;48.734;9.340;2023-07-28T09:03:09;6.93;;;4.77;;
485;SDS011;229;48.734;9.340;2023-07-28T09:05:36;9.07;;;4.67;;
485;SDS011;229;48.734;9.340;2023-07-28T09:08:05;9.53;;;6.23;;
485;SDS011;229;48.734;9.340;2023-07-28T09:10:41;10.53;;;5.70;;
485;SDS011;229;48.734;9.340;2023-07-28T09:13:09;10.77;;;5.43;;
485;SDS011;229;48.734;9.340;2023-07-28T09:15:37;12.50;;;5.23;;
485;SDS011;229;48.734;9.340;2023-07-28T09:18:07;10.30;;;5.17;;
485;SDS011;229;48.734;9.340;2023-07-28T09:20:35;13.70;;;4.60;;
485;SDS011;229;48.734;9.340;2023-07-28T09:23:03;10.97;;;4.50;;
485;SDS011;229;48.734;9.340;2023-07-28T09:25:32;7.50;;;4.00;;
485;SDS011;229;48.734;9.340;2023-07-28T09:28:01;6.10;;;4.40;;
485;SDS011;229;48.734;9.340;2023-07-28T09:30:43;7.87;;;4.20;;
485;SDS011;229;48.734;9.340;2023-07-28T09:33:10;6.47;;;4.00;;
485;SDS011;229;48.734;9.340;2023-07-28T09:35:46;6.93;;;3.87;;
485;SDS011;229;48.734;9.340;2023-07-28T09:38:14;9.50;;;3.80;;
485;SDS011;229;48.734;9.340;2023-07-28T09:40:41;9.77;;;4.27;;
485;SDS011;229;48.734;9.340;2023-07-28T09:43:09;12.03;;;4.03;;
485;SDS011;229;48.734;9.340;2023-07-28T09:45:37;5.83;;;3.83;;
485;SDS011;229;48.734;9.340;2023-07-28T09:48:05;5.40;;;3.87;;
485;SDS011;229;48.734;9.340;2023-07-28T09:50:33;5.57;;;4.10;;
485;SDS011;229;48.734;9.340;2023-07-28T09:53:01;6.13;;;3.63;;
485;SDS011;229;48.734;9.340;2023-07-28T09:55:29;13.53;;;3.93;;
485;SDS011;229;48.734;9.340;2023-07-28T09:57:57;5.97;;;3.53;;
485;SDS011;229;48.734;9.340;2023-07-28T10:00:29;6.50;;;3.50;;
485;SDS011;229;48.734;9.340;2023-07-28T10:02:57;5.30;;;3.70;;
485;SDS011;229;48.734;9.340;2023-07-28T10:05:25;4.57;;;3.70;;
485;SDS011;229;48.734;9.340;2023-07-28T10:07:52;6.70;;;4.20;;
485;SDS011;229;48.734;9.340;2023-07-28T10:10:20;7.27;;;3.40;;
485;SDS011;229;48.734;9.340;2023-07-28T10:12:48;4.90;;;3.30;;
485;SDS011;229;48.734;9.340;2023-07-28T10:15:16;3.93;;;3.40;;
485;SDS011;229;48.734;9.340;2023-07-28T10:17:46;4.73;;;3.53;;
485;SDS011;229;48.734;9.340;2023-07-28T10:20:29;5.43;;;3.63;;
485;SDS011;229;48.734;9.340;2023-07-28T10:23:03;4.60;;;3.87;;
485;SDS011;229;48.734;9.340;2023-07-28T10:25:32;4.10;;;3.50;;
485;SDS011;229;48.734;9.340;2023-07-28T10:28:00;4.73;;;3.00;;
485;SDS011;229;48.734;9.340;2023-07-28T10:30:28;4.07;;;3.50;;
485;SDS011;229;48.734;9.340;2023-07-28T10:32:57;3.97;;;3.23;;
485;SDS011;229;48.734;9.340;2023-07-28T10:35:25;4.57;;;3.20;;
485;SDS011;229;48.734;9.340;2023-07-28T10:37:53;6.50;;;4.33;;
485;SDS011;229;48.734;9.340;2023-07-28T10:40:21;3.97;;;3.10;;
485;SDS011;229;48.734;9.340;2023-07-28T10:42:49;4.10;;;3.70;;
485;SDS011;229;48.734;9.340;2023-07-28T10:45:17;4.00;;;3.07;;
485;SDS011;229;48.734;9.340;2023-07-28T10:47:44;5.40;;;3.37;;
485;SDS011;229;48.734;9.340;2023-07-28T10:50:14;4.30;;;3.07;;
485;SDS011;229;48.734;9.340;2023-07-28T10:52:41;5.80;;;3.33;;
485;SDS011;229;48.734;9.340;2023-07-28T10:55:12;3.67;;;3.30;;
485;SDS011;229;48.734;9.340;2023-07-28T10:57:40;4.63;;;3.30;;
485;SDS011;229;48.734;9.340;2023-07-28T11:00:08;4.73;;;3.70;;
485;SDS011;229;48.734;9.340;2023-07-28T11:02:37;7.17;;;2.97;;
485;SDS011;229;48.734;9.340;2023-07-28T11:05:09;5.87;;;3.20;;
485;SDS011;229;48.734;9.340;2023-07-28T11:07:39;3.93;;;3.20;;
485;SDS011;229;48.734;9.340;2023-07-28T11:10:08;3.87;;;3.03;;
485;SDS011;229;48.734;9.340;2023-07-28T11:12:38;5.43;;;3.87;;
485;SDS011;229;48.734;9.340;2023-07-28T11:15:08;5.70;;;3.43;;
485;SDS011;229;48.734;9.340;2023-07-28T11:17:36;4.40;;;3.10;;
485;SDS011;229;48.734;9.340;2023-07-28T11:20:04;6.03;;;3.30;;
485;SDS011;229;48.734;9.340;2023-07-28T11:22:35;5.17;;;2.90;;
485;SDS011;229;48.734;9.340;2023-07-28T11:25:06;4.73;;;3.20;;
485;SDS011;229;48.734;9.340;2023-07-28T11:27:35;3.00;;;2.70;;
485;SDS011;229;48.734;9.340;2023-07-28T11:30:03;4.17;;;3.30;;
485;SDS011;229;48.734;9.340;2023-07-28T11:32:31;3.13;;;2.90;;
485;SDS011;229;48.734;9.340;2023-07-28T11:35:02;5.10;;;3.10;;
485;SDS011;229;48.734;9.340;2023-07-28T11:37:30;5.27;;;3.97;;
485;SDS011;229;48.734;9.340;2023-07-28T11:39:58;4.00;;;2.90;;
485;SDS011;229;48.734;9.340;2023-07-28T11:42:27;2.93;;;2.73;;
485;SDS011;229;48.734;9.340;2023-07-28T11:44:55;5.00;;;3.53;;
485;SDS011;229;48.734;9.340;2023-07-28T11:50:30;7.73;;;3.50;;
485;SDS011;229;48.734;9.340;2023-07-28T11:53:49;4.20;;;3.50;;
485;SDS011;229;48.734;9.340;2023-07-28T11:59:19;6.70;;;3.70;;
485;SDS011;229;48.734;9.340;2023-07-28T12:00:03;5.03;;;3.60;;
485;SDS011;229;48.734;9.340;2023-07-28T12:09:03;4.60;;;3.03;;
485;SDS011;229;48.734;9.340;2023-07-28T12:11:50;4.20;;;2.57;;
485;SDS011;229;48.734;9.340;2023-07-28T12:14:29;5.43;;;2.73;;
485;SDS011;229;48.734;9.340;2023-07-28T12:17:12;6.00;;;3.00;;
485;SDS011;229;48.734;9.340;2023-07-28T12:19:54;3.37;;;2.93;;
485;SDS011;229;48.734;9.340;2023-07-28T12:22:21;4.20;;;2.90;;
485;SDS011;229;48.734;9.340;2023-07-28T12:24:48;6.13;;;3.33;;
485;SDS011;229;48.734;9.340;2023-07-28T12:27:15;4.50;;;3.10;;
485;SDS011;229;48.734;9.340;2023-07-28T12:29:45;4.40;;;3.00;;
485;SDS011;229;48.734;9.340;2023-07-28T12:32:14;4.60;;;3.00;;
485;SDS011;229;48.734;9.340;2023-07-28T12:34:41;5.80;;;3.20;;
485;SDS011;229;48.734;9.340;2023-07-28T12:37:08;4.90;;;3.47;;
485;SDS011;229;48.734;9.340;2023-07-28T12:39:36;6.80;;;3.63;;
485;SDS011;229;48.734;9.340;2023-07-28T12:42:05;5.90;;;3.90;;
485;SDS011;229;48.734;9.340;2023-07-28T12:44:32;5.70;;;3.60;;
485;SDS011;229;48.734;9.340;2023-07-28T12:46:59;4.70;;;3.20;;
485;SDS011;229;48.734;9.340;2023-07-28T12:49:28;5.57;;;3.10;;
485;SDS011;229;48.734;9.340;2023-07-28T12:51:55;4.10;;;3.23;;
485;SDS011;229;48.734;9.340;2023-07-28T12:54:22;5.10;;;3.20;;
485;SDS011;229;48.734;9.340;2023-07-28T12:56:49;6.57;;;3.67;;
485;SDS011;229;48.734;9.340;2023-07-28T12:59:17;3.90;;;3.30;;
485;SDS011;229;48.734;9.340;2023-07-28T13:01:44;5.90;;;3.40;;
485;SDS011;229;48.734;9.340;2023-07-28T13:04:11;5.23;;;3.63;;
485;SDS011;229;48.734;9.340;2023-07-28T13:06:40;5.20;;;3.50;;
485;SDS011;229;48.734;9.340;2023-07-28T13:09:07;5.83;;;3.80;;
485;SDS011;229;48.734;9.340;2023-07-28T13:11:34;5.20;;;3.80;;
485;SDS011;229;48.734;9.340;2023-07-28T13:14:01;4.80;;;3.30;;
485;SDS011;229;48.734;9.340;2023-07-28T13:16:29;5.20;;;3.53;;
485;SDS011;229;48.734;9.340;2023-07-28T13:18:56;5.07;;;3.77;;
485;SDS011;229;48.734;9.340;2023-07-28T13:21:24;6.60;;;5.10;;
485;SDS011;229;48.734;9.340;2023-07-28T13:23:53;6.30;;;4.40;;
485;SDS011;229;48.734;9.340;2023-07-28T13:26:20;5.63;;;3.80;;
485;SDS011;229;48.734;9.340;2023-07-28T13:28:47;6.90;;;3.90;;
485;SDS011;229;48.734;9.340;2023-07-28T13:31:15;5.10;;;3.50;;
485;SDS011;229;48.734;9.340;2023-07-28T13:33:42;6.57;;;3.20;;
485;SDS011;229;48.734;9.340;2023-07-28T13:36:09;5.67;;;3.77;;
485;SDS011;229;48.734;9.340;2023-07-28T13:38:37;4.03;;;3.43;;
485;SDS011;229;48.734;9.340;2023-07-28T13:41:06;6.00;;;3.93;;
485;SDS011;229;48.734;9.340;2023-07-28T13:43:33;4.30;;;3.40;;
485;SDS011;229;48.734;9.340;2023-07-28T13:46:02;5.80;;;3.93;;
485;SDS011;229;48.734;9.340;2023-07-28T13:48:30;7.43;;;3.90;;
485;SDS011;229;48.734;9.340;2023-07-28T13:50:57;4.77;;;3.70;;
485;SDS011;229;48.734;9.340;2023-07-28T13:53:24;5.30;;;3.77;;
485;SDS011;229;48.734;9.340;2023-07-28T13:55:52;7.00;;;3.37;;
485;SDS011;229;48.734;9.340;2023-07-28T13:58:20;6.40;;;4.17;;
485;SDS011;229;48.734;9.340;2023-07-28T14:00:47;6.07;;;3.70;;
485;SDS011;229;48.734;9.340;2023-07-28T14:03:15;7.80;;;3.97;;
485;SDS011;229;48.734;9.340;2023-07-28T14:05:42;6.23;;;4.20;;
485;SDS011;229;48.734;9.340;2023-07-28T14:08:09;8.50;;;3.80;;
485;SDS011;229;48.734;9.340;2023-07-28T14:10:36;11.57;;;4.43;;
485;SDS011;229;48.734;9.340;2023-07-28T14:13:04;9.60;;;3.70;;
485;SDS011;229;48.734;9.340;2023-07-28T14:15:32;5.60;;;4.00;;
485;SDS011;229;48.734;9.340;2023-07-28T14:17:59;6.53;;;4.40;;
485;SDS011;229;48.734;9.340;2023-07-28T14:20:27;9.13;;;3.67;;
485;SDS011;229;48.734;9.340;2023-07-28T14:22:55;8.20;;;3.97;;
485;SDS011;229;48.734;9.340;2023-07-28T14:25:22;6.07;;;3.60;;
485;SDS011;229;48.734;9.340;2023-07-28T14:27:49;5.70;;;3.40;;
485;SDS011;229;48.734;9.340;2023-07-28T14:30:16;6.83;;;3.30;;
485;SDS011;229;48.734;9.340;2023-07-28T14:32:45;5.93;;;2.93;;
485;SDS011;229;48.734;9.340;2023-07-28T14:35:12;6.97;;;4.30;;
485;SDS011;229;48.734;9.340;2023-07-28T14:37:39;5.87;;;3.30;;
485;SDS011;229;48.734;9.340;2023-07-28T14:40:07;8.37;;;3.77;;
485;SDS011;229;48.734;9.340;2023-07-28T14:42:34;10.27;;;3.33;;
485;SDS011;229;48.734;9.340;2023-07-28T14:45:01;5.03;;;3.70;;
485;SDS011;229;48.734;9.340;2023-07-28T14:47:29;6.90;;;3.17;;
485;SDS011;229;48.734;9.340;2023-07-28T14:49:57;5.27;;;3.93;;
485;SDS011;229;48.734;9.340;2023-07-28T14:52:24;5.23;;;3.47;;
485;SDS011;229;48.734;9.340;2023-07-28T14:54:51;5.23;;;3.40;;
485;SDS011;229;48.734;9.340;2023-07-28T14:57:19;8.30;;;4.57;;
485;SDS011;229;48.734;9.340;2023-07-28T14:59:46;5.70;;;4.10;;
485;SDS011;229;48.734;9.340;2023-07-28T15:02:13;8.50;;;3.87;;
485;SDS011;229;48.734;9.340;2023-07-28T15:04:40;7.60;;;4.70;;
485;SDS011;229;48.734;9.340;2023-07-28T15:07:11;10.07;;;4.40;;
485;SDS011;229;48.734;9.340;2023-07-28T15:09:40;9.27;;;4.80;;
485;SDS011;229;48.734;9.340;2023-07-28T15:12:07;11.27;;;4.43;;
485;SDS011;229;48.734;9.340;2023-07-28T15:14:34;9.70;;;4.40;;
485;SDS011;229;48.734;9.340;2023-07-28T15:17:01;6.73;;;4.57;;
485;SDS011;229;48.734;9.340;2023-07-28T15:19:28;8.87;;;4.97;;
485;SDS011;229;48.734;9.340;2023-07-28T15:21:56;8.20;;;5.10;;
485;SDS011;229;48.734;9.340;2023-07-28T15:24:24;10.80;;;4.60;;
485;SDS011;229;48.734;9.340;2023-07-28T15:26:51;7.90;;;5.60;;
485;SDS011;229;48.734;9.340;2023-07-28T15:29:19;7.10;;;4.33;;
485;SDS011;229;48.734;9.340;2023-07-28T15:31:46;9.10;;;5.10;;
485;SDS011;229;48.734;9.340;2023-07-28T15:34:13;6.70;;;4.90;;
485;SDS011;229;48.734;9.340;2023-07-28T15:36:40;7.97;;;4.90;;
485;SDS011;229;48.734;9.340;2023-07-28T15:39:07;6.10;;;4.40;;
485;SDS011;229;48.734;9.340;2023-07-28T15:41:36;6.27;;;4.33;;
485;SDS011;229;48.734;9.340;2023-07-28T15:44:03;8.23;;;4.20;;
485;SDS011;229;48.734;9.340;2023-07-28T15:46:30;5.63;;;4.07;;
485;SDS011;229;48.734;9.340;2023-07-28T15:48:59;6.20;;;4.43;;
485;SDS011;229;48.734;9.340;2023-07-28T15:51:26;9.30;;;3.87;;
485;SDS011;229;48.734;9.340;2023-07-28T15:53:53;5.37;;;4.30;;
485;SDS011;229;48.734;9.340;2023-07-28T15:56:20;7.97;;;4.57;;
485;SDS011;229;48.734;9.340;2023-07-28T15:58:49;7.13;;;5.20;;